sensor_id;sensor_type;location;lat;lon;timestamp;temperature;humidity
19252;DHT22;9760;50.944;5.304;2024-02-21T00:00:46;9.30;99.90
19252;DHT22;9760;50.944;5.304;2024-02-21T00:03:12;9.20;99.90
19252;DHT22;9760;50.944;5.304;2024-02-21T00:05:38;9.30;99.90
19252;DHT22;9760;50.944;5.304;2024-02-21T00:08:04;9.30;99.90
19252;DHT22;9760;50.944;5.304;2024-02-21T00:10:29;9.30;99.90
19252;DHT22;9760;50.944;5.304;2024-02-21T00:12:57;9.20;99.90
19252;DHT22;9760;50.944;5.304;2024-02-21T00:15:24;9.20;99.90
19252;DHT22;9760;50.944;5.304;2024-02-21T00:17:50;9.30;99.90
19252;DHT22;9760;50.944;5.304;2024-02-21T00:20:16;9.20;99.90
19252;DHT22;9760;50.944;5.304;2024-02-21T00:22:41;9.30;99.90
19252;DHT22;9760;50.944;5.304;2024-02-21T00:25:07;9.20;99.90
19252;DHT22;9760;50.944;5.304;2024-02-21T00:27:33;9.30;99.90
19252;DHT22;9760;50.944;5.304;2024-02-21T00:29:59;9.20;99.90
19252;DHT22;9760;50.944;5.304;2024-02-21T00:32:24;9.20;99.90
19252;DHT22;9760;50.944;5.304;2024-02-21T00:34:50;9.20;99.90
19252;DHT22;9760;50.944;5.304;2024-02-21T00:37:16;9.20;99.90
19252;DHT22;9760;50.944;5.304;2024-02-21T00:39:41;9.20;99.90
19252;DHT22;9760;50.944;5.304;2024-02-21T00:42:08;9.20;99.90
19252;DHT22;9760;50.944;5.304;2024-02-21T00:44:33;9.20;99.90
19252;DHT22;9760;50.944;5.304;2024-02-21T00:46:59;9.20;99.90
19252;DHT22;9760;50.944;5.304;2024-02-21T00:49:24;9.20;99.90
19252;DHT22;9760;50.944;5.304;2024-02-21T00:51:50;9.20;99.90
19252;DHT22;9760;50.944;5.304;2024-02-21T00:54:16;9.20;99.90
19252;DHT22;9760;50.944;5.304;2024-02-21T00:56:42;9.20;99.90
19252;DHT22;9760;50.944;5.304;2024-02-21T00:59:08;9.20;99.90
19252;DHT22;9760;50.944;5.304;2024-02-21T01:01:33;9.20;99.90
19252;DHT22;9760;50.944;5.304;2024-02-21T01:03:59;9.20;99.90
19252;DHT22;9760;50.944;5.304;2024-02-21T01:06:25;9.20;99.90
19252;DHT22;9760;50.944;5.304;2024-02-21T01:08:51;9.20;99.90
19252;DHT22;9760;50.944;5.304;2024-02-21T01:11:17;9.20;99.90
19252;DHT22;9760;50.944;5.304;2024-02-21T01:13:43;9.20;99.90
19252;DHT22;9760;50.944;5.304;2024-02-21T01:16:08;9.10;99.90
19252;DHT22;9760;50.944;5.304;2024-02-21T01:18:36;9.20;99.90
19252;DHT22;9760;50.944;5.304;2024-02-21T01:21:02;9.10;99.90
19252;DHT22;9760;50.944;5.304;2024-02-21T01:23:28;9.20;99.90
19252;DHT22;9760;50.944;5.304;2024-02-21T01:25:53;9.20;99.90
19252;DHT22;9760;50.944;5.304;2024-02-21T01:28:20;9.10;99.90
19252;DHT22;9760;50.944;5.304;2024-02-21T01:30:46;9.20;99.90
19252;DHT22;9760;50.944;5.304;2024-02-21T01:33:11;9.20;99.90
19252;DHT22;9760;50.944;5.304;2024-02-21T01:35:37;9.20;99.90
19252;DHT22;9760;50.944;5.304;2024-02-21T01:38:03;9.10;99.90
19252;DHT22;9760;50.944;5.304;2024-02-21T01:40:30;9.10;99.90
19252;DHT22;9760;50.944;5.304;2024-02-21T01:42:55;9.20;99.90
19252;DHT22;9760;50.944;5.304;2024-02-21T01:45:21;9.10;99.90
19252;DHT22;9760;50.944;5.304;2024-02-21T01:47:48;9.10;99.90
19252;DHT22;9760;50.944;5.304;2024-02-21T01:50:15;9.10;99.90
19252;DHT22;9760;50.944;5.304;2024-02-21T01:52:42;9.10;99.90
19252;DHT22;9760;50.944;5.304;2024-02-21T01:55:10;9.10;99.90
19252;DHT22;9760;50.944;5.304;2024-02-21T01:57:36;9.10;99.90
19252;DHT22;9760;50.944;5.304;2024-02-21T02:00:02;9.10;99.90
19252;DHT22;9760;50.944;5.304;2024-02-21T02:02:29;9.10;99.90
19252;DHT22;9760;50.944;5.304;2024-02-21T02:04:54;9.10;99.90
19252;DHT22;9760;50.944;5.304;2024-02-21T02:07:21;9.10;99.90
19252;DHT22;9760;50.944;5.304;2024-02-21T02:09:47;9.10;99.90
19252;DHT22;9760;50.944;5.304;2024-02-21T02:12:12;9.20;99.90
19252;DHT22;9760;50.944;5.304;2024-02-21T02:14:38;9.20;99.90
19252;DHT22;9760;50.944;5.304;2024-02-21T02:17:04;9.20;99.90
19252;DHT22;9760;50.944;5.304;2024-02-21T02:19:30;9.10;99.90
19252;DHT22;9760;50.944;5.304;2024-02-21T02:22:10;9.10;99.90
19252;DHT22;9760;50.944;5.304;2024-02-21T02:24:40;9.10;99.90
19252;DHT22;9760;50.944;5.304;2024-02-21T02:27:05;9.10;99.90
19252;DHT22;9760;50.944;5.304;2024-02-21T02:29:32;9.10;99.90
19252;DHT22;9760;50.944;5.304;2024-02-21T02:31:58;9.10;99.90
19252;DHT22;9760;50.944;5.304;2024-02-21T02:34:23;9.20;99.90
19252;DHT22;9760;50.944;5.304;2024-02-21T02:36:49;9.10;99.90
19252;DHT22;9760;50.944;5.304;2024-02-21T02:39:15;9.10;99.90
19252;DHT22;9760;50.944;5.304;2024-02-21T02:41:40;9.20;99.90
19252;DHT22;9760;50.944;5.304;2024-02-21T02:44:06;9.10;99.90
19252;DHT22;9760;50.944;5.304;2024-02-21T02:46:31;9.10;99.90
19252;DHT22;9760;50.944;5.304;2024-02-21T02:48:57;9.10;99.90
19252;DHT22;9760;50.944;5.304;2024-02-21T02:51:23;9.10;99.90
19252;DHT22;9760;50.944;5.304;2024-02-21T02:53:48;9.10;99.90
19252;DHT22;9760;50.944;5.304;2024-02-21T02:56:17;9.20;99.90
19252;DHT22;9760;50.944;5.304;2024-02-21T02:58:43;9.00;99.90
19252;DHT22;9760;50.944;5.304;2024-02-21T03:01:09;9.10;99.90
19252;DHT22;9760;50.944;5.304;2024-02-21T03:03:35;9.10;99.90
19252;DHT22;9760;50.944;5.304;2024-02-21T03:06:01;9.00;99.90
19252;DHT22;9760;50.944;5.304;2024-02-21T03:08:26;9.10;99.90
19252;DHT22;9760;50.944;5.304;2024-02-21T03:10:52;9.10;99.90
19252;DHT22;9760;50.944;5.304;2024-02-21T03:13:18;9.10;99.90
19252;DHT22;9760;50.944;5.304;2024-02-21T03:15:43;9.10;99.90
19252;DHT22;9760;50.944;5.304;2024-02-21T03:18:09;9.00;99.90
19252;DHT22;9760;50.944;5.304;2024-02-21T03:20:34;9.00;99.90
19252;DHT22;9760;50.944;5.304;2024-02-21T03:23:00;9.00;99.90
19252;DHT22;9760;50.944;5.304;2024-02-21T03:25:25;9.00;99.90
19252;DHT22;9760;50.944;5.304;2024-02-21T03:27:51;9.00;99.90
19252;DHT22;9760;50.944;5.304;2024-02-21T03:30:17;8.90;99.90
19252;DHT22;9760;50.944;5.304;2024-02-21T03:32:42;8.90;99.90
19252;DHT22;9760;50.944;5.304;2024-02-21T03:35:08;8.90;99.90
19252;DHT22;9760;50.944;5.304;2024-02-21T03:37:34;8.90;99.90
19252;DHT22;9760;50.944;5.304;2024-02-21T03:39:59;8.90;99.90
19252;DHT22;9760;50.944;5.304;2024-02-21T03:42:25;8.90;99.90
19252;DHT22;9760;50.944;5.304;2024-02-21T03:44:50;8.90;99.90
19252;DHT22;9760;50.944;5.304;2024-02-21T03:47:16;8.90;99.90
19252;DHT22;9760;50.944;5.304;2024-02-21T03:49:42;8.80;99.90
19252;DHT22;9760;50.944;5.304;2024-02-21T03:52:07;8.80;99.90
19252;DHT22;9760;50.944;5.304;2024-02-21T03:54:34;8.80;99.90
19252;DHT22;9760;50.944;5.304;2024-02-21T03:57:00;8.80;99.90
19252;DHT22;9760;50.944;5.304;2024-02-21T03:59:25;8.90;99.90
19252;DHT22;9760;50.944;5.304;2024-02-21T04:01:52;8.80;99.90
19252;DHT22;9760;50.944;5.304;2024-02-21T04:04:18;8.80;99.90
19252;DHT22;9760;50.944;5.304;2024-02-21T04:06:50;8.80;99.90
19252;DHT22;9760;50.944;5.304;2024-02-21T04:09:16;8.80;99.90
19252;DHT22;9760;50.944;5.304;2024-02-21T04:11:42;8.80;99.90
19252;DHT22;9760;50.944;5.304;2024-02-21T04:14:08;8.80;99.90
19252;DHT22;9760;50.944;5.304;2024-02-21T04:16:34;8.90;99.90
19252;DHT22;9760;50.944;5.304;2024-02-21T04:19:00;8.80;99.90
19252;DHT22;9760;50.944;5.304;2024-02-21T04:21:27;8.80;99.90
19252;DHT22;9760;50.944;5.304;2024-02-21T04:23:53;8.80;99.90
19252;DHT22;9760;50.944;5.304;2024-02-21T04:26:18;8.80;99.90
19252;DHT22;9760;50.944;5.304;2024-02-21T04:28:45;8.80;99.90
19252;DHT22;9760;50.944;5.304;2024-02-21T04:31:11;8.80;99.90
19252;DHT22;9760;50.944;5.304;2024-02-21T04:33:37;8.80;99.90
19252;DHT22;9760;50.944;5.304;2024-02-21T04:36:02;8.80;99.90
19252;DHT22;9760;50.944;5.304;2024-02-21T04:38:28;8.80;99.90
19252;DHT22;9760;50.944;5.304;2024-02-21T04:40:55;8.80;99.90
19252;DHT22;9760;50.944;5.304;2024-02-21T04:43:24;8.80;99.90
19252;DHT22;9760;50.944;5.304;2024-02-21T04:45:50;8.90;99.90
19252;DHT22;9760;50.944;5.304;2024-02-21T04:48:16;8.80;99.90
19252;DHT22;9760;50.944;5.304;2024-02-21T04:50:41;8.80;99.90
19252;DHT22;9760;50.944;5.304;2024-02-21T04:53:07;8.80;99.90
19252;DHT22;9760;50.944;5.304;2024-02-21T04:55:33;8.80;99.90
19252;DHT22;9760;50.944;5.304;2024-02-21T04:57:58;8.80;99.90
19252;DHT22;9760;50.944;5.304;2024-02-21T05:00:24;8.80;99.90
19252;DHT22;9760;50.944;5.304;2024-02-21T05:02:50;8.80;99.90
19252;DHT22;9760;50.944;5.304;2024-02-21T05:05:15;8.80;99.90
19252;DHT22;9760;50.944;5.304;2024-02-21T05:07:42;8.80;99.90
19252;DHT22;9760;50.944;5.304;2024-02-21T05:10:08;8.80;99.90
19252;DHT22;9760;50.944;5.304;2024-02-21T05:12:35;8.80;99.90
19252;DHT22;9760;50.944;5.304;2024-02-21T05:15:00;8.80;99.90
19252;DHT22;9760;50.944;5.304;2024-02-21T05:17:26;8.80;99.90
19252;DHT22;9760;50.944;5.304;2024-02-21T05:19:52;8.70;99.90
19252;DHT22;9760;50.944;5.304;2024-02-21T05:22:17;8.80;99.90
19252;DHT22;9760;50.944;5.304;2024-02-21T05:24:43;8.70;99.90
19252;DHT22;9760;50.944;5.304;2024-02-21T05:27:08;8.70;99.90
19252;DHT22;9760;50.944;5.304;2024-02-21T05:29:34;8.80;99.90
19252;DHT22;9760;50.944;5.304;2024-02-21T05:32:00;8.70;99.90
19252;DHT22;9760;50.944;5.304;2024-02-21T05:34:26;8.80;99.90
19252;DHT22;9760;50.944;5.304;2024-02-21T05:36:52;8.70;99.90
19252;DHT22;9760;50.944;5.304;2024-02-21T05:39:18;8.80;99.90
19252;DHT22;9760;50.944;5.304;2024-02-21T05:41:44;8.70;99.90
19252;DHT22;9760;50.944;5.304;2024-02-21T05:44:10;8.80;99.90
19252;DHT22;9760;50.944;5.304;2024-02-21T05:46:36;8.80;99.90
19252;DHT22;9760;50.944;5.304;2024-02-21T05:49:01;8.70;99.90
19252;DHT22;9760;50.944;5.304;2024-02-21T05:51:27;8.70;99.90
19252;DHT22;9760;50.944;5.304;2024-02-21T05:53:53;8.70;99.90
19252;DHT22;9760;50.944;5.304;2024-02-21T05:56:18;8.70;99.90
19252;DHT22;9760;50.944;5.304;2024-02-21T05:58:44;8.70;99.90
19252;DHT22;9760;50.944;5.304;2024-02-21T06:01:11;8.70;99.90
19252;DHT22;9760;50.944;5.304;2024-02-21T06:03:37;8.70;99.90
19252;DHT22;9760;50.944;5.304;2024-02-21T06:06:03;8.70;99.90
19252;DHT22;9760;50.944;5.304;2024-02-21T06:08:30;8.70;99.90
19252;DHT22;9760;50.944;5.304;2024-02-21T06:10:56;8.60;99.90
19252;DHT22;9760;50.944;5.304;2024-02-21T06:13:22;8.60;99.90
19252;DHT22;9760;50.944;5.304;2024-02-21T06:15:48;8.60;99.90
19252;DHT22;9760;50.944;5.304;2024-02-21T06:18:18;8.50;99.90
19252;DHT22;9760;50.944;5.304;2024-02-21T06:20:44;8.60;99.90
19252;DHT22;9760;50.944;5.304;2024-02-21T06:23:17;8.50;99.90
19252;DHT22;9760;50.944;5.304;2024-02-21T06:25:43;8.60;99.90
19252;DHT22;9760;50.944;5.304;2024-02-21T06:28:09;8.60;99.90
19252;DHT22;9760;50.944;5.304;2024-02-21T06:30:35;8.60;99.90
19252;DHT22;9760;50.944;5.304;2024-02-21T06:33:00;8.50;99.90
19252;DHT22;9760;50.944;5.304;2024-02-21T06:35:28;8.50;99.90
19252;DHT22;9760;50.944;5.304;2024-02-21T06:37:54;8.50;99.90
19252;DHT22;9760;50.944;5.304;2024-02-21T06:40:21;8.50;99.90
19252;DHT22;9760;50.944;5.304;2024-02-21T06:42:47;8.50;99.90
19252;DHT22;9760;50.944;5.304;2024-02-21T06:45:13;8.50;99.90
19252;DHT22;9760;50.944;5.304;2024-02-21T06:47:39;8.50;99.90
19252;DHT22;9760;50.944;5.304;2024-02-21T06:50:04;8.40;99.90
19252;DHT22;9760;50.944;5.304;2024-02-21T06:52:30;8.40;99.90
19252;DHT22;9760;50.944;5.304;2024-02-21T06:54:56;8.30;99.90
19252;DHT22;9760;50.944;5.304;2024-02-21T06:57:22;8.20;99.90
19252;DHT22;9760;50.944;5.304;2024-02-21T06:59:48;8.20;99.90
19252;DHT22;9760;50.944;5.304;2024-02-21T07:02:14;8.20;99.90
19252;DHT22;9760;50.944;5.304;2024-02-21T07:04:41;8.20;99.90
19252;DHT22;9760;50.944;5.304;2024-02-21T07:07:07;8.20;99.90
19252;DHT22;9760;50.944;5.304;2024-02-21T07:09:33;8.20;99.90
19252;DHT22;9760;50.944;5.304;2024-02-21T07:11:59;8.20;99.90
19252;DHT22;9760;50.944;5.304;2024-02-21T07:14:25;8.20;99.90
19252;DHT22;9760;50.944;5.304;2024-02-21T07:16:51;8.10;99.90
19252;DHT22;9760;50.944;5.304;2024-02-21T07:19:16;8.10;99.90
19252;DHT22;9760;50.944;5.304;2024-02-21T07:21:42;8.10;99.90
19252;DHT22;9760;50.944;5.304;2024-02-21T07:24:08;8.10;99.90
19252;DHT22;9760;50.944;5.304;2024-02-21T07:26:34;8.10;99.90
19252;DHT22;9760;50.944;5.304;2024-02-21T07:29:00;8.10;99.90
19252;DHT22;9760;50.944;5.304;2024-02-21T07:31:25;8.00;99.90
19252;DHT22;9760;50.944;5.304;2024-02-21T07:33:51;8.00;99.90
19252;DHT22;9760;50.944;5.304;2024-02-21T07:36:29;8.00;99.90
19252;DHT22;9760;50.944;5.304;2024-02-21T07:38:58;8.00;99.90
19252;DHT22;9760;50.944;5.304;2024-02-21T07:41:25;8.10;99.90
19252;DHT22;9760;50.944;5.304;2024-02-21T07:43:50;8.00;99.90
19252;DHT22;9760;50.944;5.304;2024-02-21T07:46:17;8.00;99.90
19252;DHT22;9760;50.944;5.304;2024-02-21T07:48:45;8.10;99.90
19252;DHT22;9760;50.944;5.304;2024-02-21T07:51:11;8.20;99.90
19252;DHT22;9760;50.944;5.304;2024-02-21T07:53:38;8.10;99.90
19252;DHT22;9760;50.944;5.304;2024-02-21T07:56:04;8.10;99.90
19252;DHT22;9760;50.944;5.304;2024-02-21T07:58:29;8.20;99.90
19252;DHT22;9760;50.944;5.304;2024-02-21T08:00:55;8.20;99.90
19252;DHT22;9760;50.944;5.304;2024-02-21T08:03:21;8.20;99.90
19252;DHT22;9760;50.944;5.304;2024-02-21T08:05:46;8.30;99.90
19252;DHT22;9760;50.944;5.304;2024-02-21T08:08:13;8.30;99.90
19252;DHT22;9760;50.944;5.304;2024-02-21T08:10:43;8.30;99.90
19252;DHT22;9760;50.944;5.304;2024-02-21T08:13:09;8.40;99.90
19252;DHT22;9760;50.944;5.304;2024-02-21T08:15:34;8.40;99.90
19252;DHT22;9760;50.944;5.304;2024-02-21T08:18:00;8.40;99.90
19252;DHT22;9760;50.944;5.304;2024-02-21T08:20:27;8.50;99.90
19252;DHT22;9760;50.944;5.304;2024-02-21T08:22:53;8.50;99.90
19252;DHT22;9760;50.944;5.304;2024-02-21T08:25:18;8.60;99.90
19252;DHT22;9760;50.944;5.304;2024-02-21T08:27:44;8.70;99.90
19252;DHT22;9760;50.944;5.304;2024-02-21T08:30:11;8.70;99.90
19252;DHT22;9760;50.944;5.304;2024-02-21T08:32:37;8.70;99.90
19252;DHT22;9760;50.944;5.304;2024-02-21T08:35:03;8.80;99.90
19252;DHT22;9760;50.944;5.304;2024-02-21T08:37:28;8.80;99.90
19252;DHT22;9760;50.944;5.304;2024-02-21T08:39:54;8.90;99.90
19252;DHT22;9760;50.944;5.304;2024-02-21T08:42:19;8.90;99.90
19252;DHT22;9760;50.944;5.304;2024-02-21T08:44:45;9.00;99.90
19252;DHT22;9760;50.944;5.304;2024-02-21T08:47:11;9.00;99.90
19252;DHT22;9760;50.944;5.304;2024-02-21T08:49:37;9.00;99.90
19252;DHT22;9760;50.944;5.304;2024-02-21T08:52:03;9.00;99.90
19252;DHT22;9760;50.944;5.304;2024-02-21T08:54:28;9.10;99.90
19252;DHT22;9760;50.944;5.304;2024-02-21T08:56:54;9.10;99.90
19252;DHT22;9760;50.944;5.304;2024-02-21T08:59:20;9.10;99.90
19252;DHT22;9760;50.944;5.304;2024-02-21T09:01:46;9.10;99.90
19252;DHT22;9760;50.944;5.304;2024-02-21T09:04:12;9.10;99.90
19252;DHT22;9760;50.944;5.304;2024-02-21T09:06:37;9.10;99.90
19252;DHT22;9760;50.944;5.304;2024-02-21T09:09:08;9.20;99.90
19252;DHT22;9760;50.944;5.304;2024-02-21T09:11:34;9.20;99.90
19252;DHT22;9760;50.944;5.304;2024-02-21T09:13:59;9.20;99.90
19252;DHT22;9760;50.944;5.304;2024-02-21T09:16:25;9.20;99.90
19252;DHT22;9760;50.944;5.304;2024-02-21T09:18:51;9.20;99.90
19252;DHT22;9760;50.944;5.304;2024-02-21T09:21:18;9.30;99.90
19252;DHT22;9760;50.944;5.304;2024-02-21T09:23:44;9.20;99.90
19252;DHT22;9760;50.944;5.304;2024-02-21T09:26:10;9.30;99.90
19252;DHT22;9760;50.944;5.304;2024-02-21T09:28:39;9.20;99.90
19252;DHT22;9760;50.944;5.304;2024-02-21T09:31:05;9.30;99.90
19252;DHT22;9760;50.944;5.304;2024-02-21T09:33:30;9.30;99.90
19252;DHT22;9760;50.944;5.304;2024-02-21T09:35:56;9.30;99.90
19252;DHT22;9760;50.944;5.304;2024-02-21T09:38:22;9.40;99.90
19252;DHT22;9760;50.944;5.304;2024-02-21T09:40:51;9.40;99.90
19252;DHT22;9760;50.944;5.304;2024-02-21T09:43:18;9.50;99.90
19252;DHT22;9760;50.944;5.304;2024-02-21T09:45:46;9.50;99.90
19252;DHT22;9760;50.944;5.304;2024-02-21T09:51:19;9.50;99.90
19252;DHT22;9760;50.944;5.304;2024-02-21T09:53:47;9.60;99.90
19252;DHT22;9760;50.944;5.304;2024-02-21T09:56:13;9.60;99.90
19252;DHT22;9760;50.944;5.304;2024-02-21T09:58:39;9.70;99.90
19252;DHT22;9760;50.944;5.304;2024-02-21T10:01:06;9.70;99.90
19252;DHT22;9760;50.944;5.304;2024-02-21T10:03:32;9.80;99.90
19252;DHT22;9760;50.944;5.304;2024-02-21T10:05:59;9.80;99.90
19252;DHT22;9760;50.944;5.304;2024-02-21T10:08:26;9.90;99.90
19252;DHT22;9760;50.944;5.304;2024-02-21T10:10:52;9.90;99.90
19252;DHT22;9760;50.944;5.304;2024-02-21T10:13:26;9.90;99.90
19252;DHT22;9760;50.944;5.304;2024-02-21T10:16:06;10.00;99.90
19252;DHT22;9760;50.944;5.304;2024-02-21T10:18:33;10.10;99.90
19252;DHT22;9760;50.944;5.304;2024-02-21T10:21:06;10.20;99.90
19252;DHT22;9760;50.944;5.304;2024-02-21T10:24:01;10.30;99.90
19252;DHT22;9760;50.944;5.304;2024-02-21T10:26:27;10.30;99.90
19252;DHT22;9760;50.944;5.304;2024-02-21T10:28:52;10.30;99.90
19252;DHT22;9760;50.944;5.304;2024-02-21T10:31:23;10.30;99.90
19252;DHT22;9760;50.944;5.304;2024-02-21T10:33:56;10.40;99.90
19252;DHT22;9760;50.944;5.304;2024-02-21T10:36:23;10.50;99.90
19252;DHT22;9760;50.944;5.304;2024-02-21T10:38:50;10.50;99.90
19252;DHT22;9760;50.944;5.304;2024-02-21T10:41:16;10.50;99.90
19252;DHT22;9760;50.944;5.304;2024-02-21T10:43:49;10.60;99.90
19252;DHT22;9760;50.944;5.304;2024-02-21T10:46:19;10.60;99.90
19252;DHT22;9760;50.944;5.304;2024-02-21T10:48:45;10.50;99.90
19252;DHT22;9760;50.944;5.304;2024-02-21T10:51:14;10.50;99.90
19252;DHT22;9760;50.944;5.304;2024-02-21T10:56:38;10.50;99.90
19252;DHT22;9760;50.944;5.304;2024-02-21T10:59:06;10.60;99.90
19252;DHT22;9760;50.944;5.304;2024-02-21T11:01:32;10.70;99.90
19252;DHT22;9760;50.944;5.304;2024-02-21T11:04:01;10.90;99.90
19252;DHT22;9760;50.944;5.304;2024-02-21T11:06:28;10.90;99.90
19252;DHT22;9760;50.944;5.304;2024-02-21T11:09:10;11.00;99.90
19252;DHT22;9760;50.944;5.304;2024-02-21T11:11:38;10.90;99.90
19252;DHT22;9760;50.944;5.304;2024-02-21T11:14:11;10.80;99.90
19252;DHT22;9760;50.944;5.304;2024-02-21T11:16:41;10.90;99.90
19252;DHT22;9760;50.944;5.304;2024-02-21T11:19:22;10.90;99.90
19252;DHT22;9760;50.944;5.304;2024-02-21T11:21:49;11.00;99.90
19252;DHT22;9760;50.944;5.304;2024-02-21T11:24:35;11.20;99.90
19252;DHT22;9760;50.944;5.304;2024-02-21T11:27:35;11.20;99.90
19252;DHT22;9760;50.944;5.304;2024-02-21T11:30:04;11.20;99.90
19252;DHT22;9760;50.944;5.304;2024-02-21T11:32:31;11.20;99.90
19252;DHT22;9760;50.944;5.304;2024-02-21T11:37:28;11.30;99.90
19252;DHT22;9760;50.944;5.304;2024-02-21T11:39:57;11.20;99.90
19252;DHT22;9760;50.944;5.304;2024-02-21T11:42:25;11.00;99.90
19252;DHT22;9760;50.944;5.304;2024-02-21T11:44:52;11.00;99.90
19252;DHT22;9760;50.944;5.304;2024-02-21T11:47:18;11.10;99.90
19252;DHT22;9760;50.944;5.304;2024-02-21T11:49:46;11.10;99.90
19252;DHT22;9760;50.944;5.304;2024-02-21T11:52:12;11.00;99.90
19252;DHT22;9760;50.944;5.304;2024-02-21T11:54:41;11.10;99.90
19252;DHT22;9760;50.944;5.304;2024-02-21T11:57:06;11.10;99.90
19252;DHT22;9760;50.944;5.304;2024-02-21T11:59:33;11.20;99.90
19252;DHT22;9760;50.944;5.304;2024-02-21T12:02:01;11.20;99.90
19252;DHT22;9760;50.944;5.304;2024-02-21T12:04:30;11.20;99.90
19252;DHT22;9760;50.944;5.304;2024-02-21T12:06:57;11.10;99.90
19252;DHT22;9760;50.944;5.304;2024-02-21T12:09:24;11.10;99.90
19252;DHT22;9760;50.944;5.304;2024-02-21T12:12:02;11.20;99.90
19252;DHT22;9760;50.944;5.304;2024-02-21T12:14:32;11.20;99.90
19252;DHT22;9760;50.944;5.304;2024-02-21T12:16:59;11.30;99.90
19252;DHT22;9760;50.944;5.304;2024-02-21T12:19:26;11.30;99.90
19252;DHT22;9760;50.944;5.304;2024-02-21T12:21:52;11.30;99.90
19252;DHT22;9760;50.944;5.304;2024-02-21T12:24:27;11.20;99.90
19252;DHT22;9760;50.944;5.304;2024-02-21T12:26:54;11.10;99.90
19252;DHT22;9760;50.944;5.304;2024-02-21T12:29:21;11.10;99.90
19252;DHT22;9760;50.944;5.304;2024-02-21T12:31:47;11.10;99.90
19252;DHT22;9760;50.944;5.304;2024-02-21T12:34:13;11.20;99.90
19252;DHT22;9760;50.944;5.304;2024-02-21T12:36:44;11.20;99.90
19252;DHT22;9760;50.944;5.304;2024-02-21T12:39:10;11.10;99.90
19252;DHT22;9760;50.944;5.304;2024-02-21T12:41:37;11.00;99.90
19252;DHT22;9760;50.944;5.304;2024-02-21T12:44:05;11.00;99.90
19252;DHT22;9760;50.944;5.304;2024-02-21T12:46:33;11.00;99.90
19252;DHT22;9760;50.944;5.304;2024-02-21T12:48:59;11.00;99.90
19252;DHT22;9760;50.944;5.304;2024-02-21T12:51:25;10.90;99.90
19252;DHT22;9760;50.944;5.304;2024-02-21T12:53:50;11.00;99.90
19252;DHT22;9760;50.944;5.304;2024-02-21T12:56:16;11.00;99.90
19252;DHT22;9760;50.944;5.304;2024-02-21T12:58:42;11.00;99.90
19252;DHT22;9760;50.944;5.304;2024-02-21T13:01:07;11.00;99.90
19252;DHT22;9760;50.944;5.304;2024-02-21T13:03:33;11.00;99.90
19252;DHT22;9760;50.944;5.304;2024-02-21T13:05:59;11.00;99.90
19252;DHT22;9760;50.944;5.304;2024-02-21T13:08:25;11.00;99.90
19252;DHT22;9760;50.944;5.304;2024-02-21T13:10:51;11.00;99.90
19252;DHT22;9760;50.944;5.304;2024-02-21T13:13:16;11.00;99.90
19252;DHT22;9760;50.944;5.304;2024-02-21T13:15:42;10.90;99.90
19252;DHT22;9760;50.944;5.304;2024-02-21T13:18:08;11.00;99.90
19252;DHT22;9760;50.944;5.304;2024-02-21T13:20:35;11.10;99.90
19252;DHT22;9760;50.944;5.304;2024-02-21T13:23:01;11.10;99.90
19252;DHT22;9760;50.944;5.304;2024-02-21T13:25:27;11.10;99.90
19252;DHT22;9760;50.944;5.304;2024-02-21T13:27:53;11.10;99.90
19252;DHT22;9760;50.944;5.304;2024-02-21T13:30:19;11.00;99.90
19252;DHT22;9760;50.944;5.304;2024-02-21T13:32:44;11.00;99.90
19252;DHT22;9760;50.944;5.304;2024-02-21T13:35:13;11.20;99.90
19252;DHT22;9760;50.944;5.304;2024-02-21T13:37:40;11.20;99.90
19252;DHT22;9760;50.944;5.304;2024-02-21T13:40:06;11.20;99.90
19252;DHT22;9760;50.944;5.304;2024-02-21T13:42:35;11.20;99.90
19252;DHT22;9760;50.944;5.304;2024-02-21T13:45:00;11.30;99.90
19252;DHT22;9760;50.944;5.304;2024-02-21T13:47:27;11.30;99.90
19252;DHT22;9760;50.944;5.304;2024-02-21T13:49:53;11.30;99.90
19252;DHT22;9760;50.944;5.304;2024-02-21T13:52:18;11.30;99.90
19252;DHT22;9760;50.944;5.304;2024-02-21T13:54:47;11.20;99.90
19252;DHT22;9760;50.944;5.304;2024-02-21T13:57:13;11.20;99.90
19252;DHT22;9760;50.944;5.304;2024-02-21T13:59:40;11.20;99.90
19252;DHT22;9760;50.944;5.304;2024-02-21T14:02:05;11.30;99.90
19252;DHT22;9760;50.944;5.304;2024-02-21T14:04:35;11.20;99.90
19252;DHT22;9760;50.944;5.304;2024-02-21T14:07:00;11.20;99.90
19252;DHT22;9760;50.944;5.304;2024-02-21T14:09:27;11.20;99.90
19252;DHT22;9760;50.944;5.304;2024-02-21T14:11:52;11.10;99.90
19252;DHT22;9760;50.944;5.304;2024-02-21T14:14:19;11.10;99.90
19252;DHT22;9760;50.944;5.304;2024-02-21T14:16:44;11.10;99.90
19252;DHT22;9760;50.944;5.304;2024-02-21T14:19:13;11.10;99.90
19252;DHT22;9760;50.944;5.304;2024-02-21T14:21:38;11.10;99.90
19252;DHT22;9760;50.944;5.304;2024-02-21T14:24:05;11.00;99.90
19252;DHT22;9760;50.944;5.304;2024-02-21T14:26:31;11.00;99.90
19252;DHT22;9760;50.944;5.304;2024-02-21T14:28:59;10.90;99.90
19252;DHT22;9760;50.944;5.304;2024-02-21T14:31:25;10.90;99.90
19252;DHT22;9760;50.944;5.304;2024-02-21T14:33:51;10.80;99.90
19252;DHT22;9760;50.944;5.304;2024-02-21T14:36:17;10.80;99.90
19252;DHT22;9760;50.944;5.304;2024-02-21T14:38:43;10.80;99.90
19252;DHT22;9760;50.944;5.304;2024-02-21T14:41:09;10.80;99.90
19252;DHT22;9760;50.944;5.304;2024-02-21T14:43:37;10.80;99.90
19252;DHT22;9760;50.944;5.304;2024-02-21T14:46:03;10.80;99.90
19252;DHT22;9760;50.944;5.304;2024-02-21T14:48:30;10.70;99.90
19252;DHT22;9760;50.944;5.304;2024-02-21T14:51:00;10.70;99.90
19252;DHT22;9760;50.944;5.304;2024-02-21T14:53:26;10.70;99.90
19252;DHT22;9760;50.944;5.304;2024-02-21T14:55:51;10.60;99.90
19252;DHT22;9760;50.944;5.304;2024-02-21T14:58:17;10.60;99.90
19252;DHT22;9760;50.944;5.304;2024-02-21T15:00:45;10.40;99.90
19252;DHT22;9760;50.944;5.304;2024-02-21T15:03:12;10.40;99.90
19252;DHT22;9760;50.944;5.304;2024-02-21T15:05:41;10.30;99.90
19252;DHT22;9760;50.944;5.304;2024-02-21T15:08:07;10.20;99.90
19252;DHT22;9760;50.944;5.304;2024-02-21T15:10:35;10.20;99.90
19252;DHT22;9760;50.944;5.304;2024-02-21T15:13:01;10.10;99.90
19252;DHT22;9760;50.944;5.304;2024-02-21T15:15:26;10.00;99.90
19252;DHT22;9760;50.944;5.304;2024-02-21T15:17:52;9.90;99.90
19252;DHT22;9760;50.944;5.304;2024-02-21T15:20:17;9.90;99.90
19252;DHT22;9760;50.944;5.304;2024-02-21T15:22:43;9.90;99.90
19252;DHT22;9760;50.944;5.304;2024-02-21T15:25:09;9.90;99.90
19252;DHT22;9760;50.944;5.304;2024-02-21T15:27:44;9.80;99.90
19252;DHT22;9760;50.944;5.304;2024-02-21T15:30:14;9.80;99.90
19252;DHT22;9760;50.944;5.304;2024-02-21T15:32:40;9.60;99.90
19252;DHT22;9760;50.944;5.304;2024-02-21T15:35:09;9.60;99.90
19252;DHT22;9760;50.944;5.304;2024-02-21T15:37:36;9.50;99.90
19252;DHT22;9760;50.944;5.304;2024-02-21T15:40:02;9.50;99.90
19252;DHT22;9760;50.944;5.304;2024-02-21T15:42:31;9.50;99.90
19252;DHT22;9760;50.944;5.304;2024-02-21T15:44:58;9.40;99.90
19252;DHT22;9760;50.944;5.304;2024-02-21T15:47:29;9.40;99.90
19252;DHT22;9760;50.944;5.304;2024-02-21T15:49:54;9.30;99.90
19252;DHT22;9760;50.944;5.304;2024-02-21T15:52:20;9.20;99.90
19252;DHT22;9760;50.944;5.304;2024-02-21T15:54:46;9.20;99.90
19252;DHT22;9760;50.944;5.304;2024-02-21T15:57:12;9.20;99.90
19252;DHT22;9760;50.944;5.304;2024-02-21T15:59:38;9.20;99.90
19252;DHT22;9760;50.944;5.304;2024-02-21T16:02:05;9.10;99.90